sensor_id;sensor_type;location;lat;lon;timestamp;P1;durP1;ratioP1;P2;durP2;ratioP2
48403;SDS011;34202;52.536;6.042;2022-12-10T00:02:26;49.10;;;25.10;;
48403;SDS011;34202;52.536;6.042;2022-12-10T00:07:27;53.30;;;28.70;;
48403;SDS011;34202;52.536;6.042;2022-12-10T00:12:27;53.10;;;27.80;;
48403;SDS011;34202;52.536;6.042;2022-12-10T00:17:27;58.50;;;30.10;;
48403;SDS011;34202;52.536;6.042;2022-12-10T00:22:28;64.20;;;29.70;;
48403;SDS011;34202;52.536;6.042;2022-12-10T00:27:28;63.50;;;31.50;;
48403;SDS011;34202;52.536;6.042;2022-12-10T00:32:30;55.20;;;26.50;;
48403;SDS011;34202;52.536;6.042;2022-12-10T00:37:32;52.10;;;27.50;;
48403;SDS011;34202;52.536;6.042;2022-12-10T00:42:33;52.70;;;29.10;;
48403;SDS011;34202;52.536;6.042;2022-12-10T00:47:33;54.50;;;28.00;;
48403;SDS011;34202;52.536;6.042;2022-12-10T00:52:33;58.60;;;29.40;;
48403;SDS011;34202;52.536;6.042;2022-12-10T00:57:34;61.50;;;28.90;;
48403;SDS011;34202;52.536;6.042;2022-12-10T01:02:34;70.00;;;34.40;;
48403;SDS011;34202;52.536;6.042;2022-12-10T01:07:34;70.50;;;31.90;;
48403;SDS011;34202;52.536;6.042;2022-12-10T01:12:35;65.40;;;31.30;;
48403;SDS011;34202;52.536;6.042;2022-12-10T01:17:35;68.30;;;32.70;;
48403;SDS011;34202;52.536;6.042;2022-12-10T01:22:35;70.30;;;36.80;;
48403;SDS011;34202;52.536;6.042;2022-12-10T01:27:36;70.30;;;32.40;;
48403;SDS011;34202;52.536;6.042;2022-12-10T01:32:36;66.20;;;31.80;;
48403;SDS011;34202;52.536;6.042;2022-12-10T01:37:36;68.30;;;33.50;;
48403;SDS011;34202;52.536;6.042;2022-12-10T01:42:36;66.10;;;34.50;;
48403;SDS011;34202;52.536;6.042;2022-12-10T01:47:37;59.60;;;29.90;;
48403;SDS011;34202;52.536;6.042;2022-12-10T01:52:38;59.80;;;30.80;;
48403;SDS011;34202;52.536;6.042;2022-12-10T01:57:39;56.50;;;29.60;;
48403;SDS011;34202;52.536;6.042;2022-12-10T02:02:46;63.50;;;31.90;;
48403;SDS011;34202;52.536;6.042;2022-12-10T02:13:06;55.20;;;30.90;;
48403;SDS011;34202;52.536;6.042;2022-12-10T02:18:25;66.80;;;33.10;;
48403;SDS011;34202;52.536;6.042;2022-12-10T02:23:34;59.60;;;31.50;;
48403;SDS011;34202;52.536;6.042;2022-12-10T02:28:40;61.40;;;31.20;;
48403;SDS011;34202;52.536;6.042;2022-12-10T02:33:43;63.50;;;32.60;;
48403;SDS011;34202;52.536;6.042;2022-12-10T02:38:47;56.20;;;29.40;;
48403;SDS011;34202;52.536;6.042;2022-12-10T02:43:51;56.90;;;27.30;;
48403;SDS011;34202;52.536;6.042;2022-12-10T02:48:54;59.80;;;28.70;;
48403;SDS011;34202;52.536;6.042;2022-12-10T02:54:00;61.60;;;31.20;;
48403;SDS011;34202;52.536;6.042;2022-12-10T02:59:22;69.10;;;33.90;;
48403;SDS011;34202;52.536;6.042;2022-12-10T03:04:56;68.80;;;33.90;;
48403;SDS011;34202;52.536;6.042;2022-12-10T03:10:30;59.40;;;30.70;;
48403;SDS011;34202;52.536;6.042;2022-12-10T03:15:35;56.40;;;28.40;;
48403;SDS011;34202;52.536;6.042;2022-12-10T03:20:41;67.00;;;32.60;;
48403;SDS011;34202;52.536;6.042;2022-12-10T03:25:44;66.80;;;32.40;;
48403;SDS011;34202;52.536;6.042;2022-12-10T03:35:50;60.40;;;28.10;;
48403;SDS011;34202;52.536;6.042;2022-12-10T03:40:51;68.30;;;32.70;;
48403;SDS011;34202;52.536;6.042;2022-12-10T03:45:51;58.60;;;32.70;;
48403;SDS011;34202;52.536;6.042;2022-12-10T03:50:51;58.10;;;28.10;;
48403;SDS011;34202;52.536;6.042;2022-12-10T03:55:52;65.60;;;29.10;;
48403;SDS011;34202;52.536;6.042;2022-12-10T04:00:52;72.70;;;31.90;;
48403;SDS011;34202;52.536;6.042;2022-12-10T04:05:52;63.90;;;34.40;;
48403;SDS011;34202;52.536;6.042;2022-12-10T04:10:53;64.60;;;30.50;;
48403;SDS011;34202;52.536;6.042;2022-12-10T04:15:53;74.20;;;36.60;;
48403;SDS011;34202;52.536;6.042;2022-12-10T04:21:12;72.70;;;33.40;;
48403;SDS011;34202;52.536;6.042;2022-12-10T04:26:30;84.80;;;35.90;;
48403;SDS011;34202;52.536;6.042;2022-12-10T04:31:52;86.70;;;37.80;;
48403;SDS011;34202;52.536;6.042;2022-12-10T04:36:53;80.70;;;33.80;;
48403;SDS011;34202;52.536;6.042;2022-12-10T04:41:54;76.70;;;33.40;;
48403;SDS011;34202;52.536;6.042;2022-12-10T04:46:55;75.10;;;33.00;;
48403;SDS011;34202;52.536;6.042;2022-12-10T04:51:55;74.10;;;33.70;;
48403;SDS011;34202;52.536;6.042;2022-12-10T04:56:55;66.80;;;31.80;;
48403;SDS011;34202;52.536;6.042;2022-12-10T05:01:55;74.50;;;34.50;;
48403;SDS011;34202;52.536;6.042;2022-12-10T05:06:56;77.50;;;33.30;;
48403;SDS011;34202;52.536;6.042;2022-12-10T05:11:56;75.60;;;33.10;;
48403;SDS011;34202;52.536;6.042;2022-12-10T05:16:56;74.10;;;33.70;;
48403;SDS011;34202;52.536;6.042;2022-12-10T05:21:57;73.10;;;33.70;;
48403;SDS011;34202;52.536;6.042;2022-12-10T05:27:16;65.70;;;32.20;;
48403;SDS011;34202;52.536;6.042;2022-12-10T05:32:16;59.10;;;29.20;;
48403;SDS011;34202;52.536;6.042;2022-12-10T05:37:16;62.30;;;28.60;;
48403;SDS011;34202;52.536;6.042;2022-12-10T05:42:17;63.40;;;30.40;;
48403;SDS011;34202;52.536;6.042;2022-12-10T05:47:17;78.80;;;29.70;;
48403;SDS011;34202;52.536;6.042;2022-12-10T05:52:17;71.00;;;31.50;;
48403;SDS011;34202;52.536;6.042;2022-12-10T05:57:18;56.80;;;28.60;;
48403;SDS011;34202;52.536;6.042;2022-12-10T06:02:18;58.70;;;25.30;;
48403;SDS011;34202;52.536;6.042;2022-12-10T06:07:18;59.90;;;28.70;;
48403;SDS011;34202;52.536;6.042;2022-12-10T06:12:18;86.30;;;27.40;;
48403;SDS011;34202;52.536;6.042;2022-12-10T06:17:19;67.90;;;28.10;;
48403;SDS011;34202;52.536;6.042;2022-12-10T06:22:19;57.70;;;22.80;;
48403;SDS011;34202;52.536;6.042;2022-12-10T06:27:19;53.50;;;26.60;;
48403;SDS011;34202;52.536;6.042;2022-12-10T06:32:20;52.30;;;25.20;;
48403;SDS011;34202;52.536;6.042;2022-12-10T06:37:20;64.00;;;29.20;;
48403;SDS011;34202;52.536;6.042;2022-12-10T06:42:20;51.00;;;25.30;;
48403;SDS011;34202;52.536;6.042;2022-12-10T06:47:21;54.70;;;23.90;;
48403;SDS011;34202;52.536;6.042;2022-12-10T06:52:21;62.10;;;28.00;;
48403;SDS011;34202;52.536;6.042;2022-12-10T06:57:22;55.50;;;26.20;;
48403;SDS011;34202;52.536;6.042;2022-12-10T07:02:22;51.90;;;24.20;;
48403;SDS011;34202;52.536;6.042;2022-12-10T07:07:22;61.40;;;27.20;;
48403;SDS011;34202;52.536;6.042;2022-12-10T07:12:23;61.20;;;28.70;;
48403;SDS011;34202;52.536;6.042;2022-12-10T07:17:23;63.90;;;28.70;;
48403;SDS011;34202;52.536;6.042;2022-12-10T07:22:23;56.50;;;26.30;;
48403;SDS011;34202;52.536;6.042;2022-12-10T07:27:24;62.80;;;25.70;;
48403;SDS011;34202;52.536;6.042;2022-12-10T07:32:26;50.60;;;21.40;;
48403;SDS011;34202;52.536;6.042;2022-12-10T07:37:26;52.70;;;24.10;;
48403;SDS011;34202;52.536;6.042;2022-12-10T07:42:27;53.80;;;21.30;;
48403;SDS011;34202;52.536;6.042;2022-12-10T07:47:27;51.60;;;25.40;;
48403;SDS011;34202;52.536;6.042;2022-12-10T07:52:27;56.70;;;26.20;;
48403;SDS011;34202;52.536;6.042;2022-12-10T07:57:28;55.30;;;25.50;;
48403;SDS011;34202;52.536;6.042;2022-12-10T08:02:29;117.50;;;33.40;;
48403;SDS011;34202;52.536;6.042;2022-12-10T08:07:29;63.90;;;24.10;;
48403;SDS011;34202;52.536;6.042;2022-12-10T08:12:30;46.50;;;22.00;;
48403;SDS011;34202;52.536;6.042;2022-12-10T08:17:30;55.20;;;24.20;;
48403;SDS011;34202;52.536;6.042;2022-12-10T08:22:30;49.50;;;20.70;;
48403;SDS011;34202;52.536;6.042;2022-12-10T08:27:33;50.10;;;22.70;;
48403;SDS011;34202;52.536;6.042;2022-12-10T08:32:33;50.70;;;22.80;;
48403;SDS011;34202;52.536;6.042;2022-12-10T08:37:33;52.30;;;25.50;;
48403;SDS011;34202;52.536;6.042;2022-12-10T08:42:33;54.60;;;23.50;;
48403;SDS011;34202;52.536;6.042;2022-12-10T08:47:34;53.00;;;24.50;;
48403;SDS011;34202;52.536;6.042;2022-12-10T08:52:34;59.30;;;26.30;;
48403;SDS011;34202;52.536;6.042;2022-12-10T08:57:34;57.00;;;26.10;;
48403;SDS011;34202;52.536;6.042;2022-12-10T09:02:35;53.20;;;25.10;;
48403;SDS011;34202;52.536;6.042;2022-12-10T09:07:35;53.00;;;23.20;;
48403;SDS011;34202;52.536;6.042;2022-12-10T09:12:36;56.80;;;25.30;;
48403;SDS011;34202;52.536;6.042;2022-12-10T09:17:36;55.80;;;29.50;;
48403;SDS011;34202;52.536;6.042;2022-12-10T09:22:38;50.50;;;23.90;;
48403;SDS011;34202;52.536;6.042;2022-12-10T09:27:38;56.30;;;24.80;;
48403;SDS011;34202;52.536;6.042;2022-12-10T09:32:39;51.80;;;23.20;;
48403;SDS011;34202;52.536;6.042;2022-12-10T09:37:39;45.80;;;21.70;;
48403;SDS011;34202;52.536;6.042;2022-12-10T09:42:51;53.70;;;24.10;;
48403;SDS011;34202;52.536;6.042;2022-12-10T09:53:46;61.70;;;29.40;;
48403;SDS011;34202;52.536;6.042;2022-12-10T09:58:49;56.20;;;27.10;;
48403;SDS011;34202;52.536;6.042;2022-12-10T10:03:49;51.50;;;24.70;;
48403;SDS011;34202;52.536;6.042;2022-12-10T10:08:51;55.80;;;27.00;;
48403;SDS011;34202;52.536;6.042;2022-12-10T10:14:11;66.10;;;28.50;;
48403;SDS011;34202;52.536;6.042;2022-12-10T10:19:15;54.70;;;26.10;;
48403;SDS011;34202;52.536;6.042;2022-12-10T10:24:18;60.00;;;27.90;;
48403;SDS011;34202;52.536;6.042;2022-12-10T10:29:21;64.30;;;28.30;;
48403;SDS011;34202;52.536;6.042;2022-12-10T10:34:26;70.10;;;31.00;;
48403;SDS011;34202;52.536;6.042;2022-12-10T10:39:27;63.20;;;26.40;;
48403;SDS011;34202;52.536;6.042;2022-12-10T10:44:33;61.10;;;25.10;;
48403;SDS011;34202;52.536;6.042;2022-12-10T10:49:36;59.90;;;29.00;;
48403;SDS011;34202;52.536;6.042;2022-12-10T10:54:44;57.10;;;26.30;;
48403;SDS011;34202;52.536;6.042;2022-12-10T10:59:46;59.30;;;27.00;;
48403;SDS011;34202;52.536;6.042;2022-12-10T11:04:48;55.50;;;25.30;;
48403;SDS011;34202;52.536;6.042;2022-12-10T11:09:51;64.10;;;28.50;;
48403;SDS011;34202;52.536;6.042;2022-12-10T11:14:53;63.30;;;26.80;;
48403;SDS011;34202;52.536;6.042;2022-12-10T11:24:57;57.40;;;28.40;;
48403;SDS011;34202;52.536;6.042;2022-12-10T11:30:09;54.10;;;24.80;;
48403;SDS011;34202;52.536;6.042;2022-12-10T11:35:17;59.40;;;29.40;;
48403;SDS011;34202;52.536;6.042;2022-12-10T12:01:32;60.60;;;28.90;;
48403;SDS011;34202;52.536;6.042;2022-12-10T12:22:34;61.90;;;28.40;;
48403;SDS011;34202;52.536;6.042;2022-12-10T12:27:40;52.70;;;27.00;;
48403;SDS011;34202;52.536;6.042;2022-12-10T12:32:55;57.20;;;27.20;;
48403;SDS011;34202;52.536;6.042;2022-12-10T12:43:37;55.30;;;27.70;;
48403;SDS011;34202;52.536;6.042;2022-12-10T12:53:51;50.30;;;24.40;;
48403;SDS011;34202;52.536;6.042;2022-12-10T12:59:11;57.10;;;25.20;;
48403;SDS011;34202;52.536;6.042;2022-12-10T13:04:14;57.60;;;24.40;;
48403;SDS011;34202;52.536;6.042;2022-12-10T13:09:16;50.40;;;23.90;;
48403;SDS011;34202;52.536;6.042;2022-12-10T13:14:30;51.20;;;27.00;;
48403;SDS011;34202;52.536;6.042;2022-12-10T13:19:33;50.70;;;24.50;;
48403;SDS011;34202;52.536;6.042;2022-12-10T13:40:14;54.30;;;26.30;;
48403;SDS011;34202;52.536;6.042;2022-12-10T13:56:11;39.00;;;20.00;;
48403;SDS011;34202;52.536;6.042;2022-12-10T14:01:31;46.90;;;22.70;;
48403;SDS011;34202;52.536;6.042;2022-12-10T14:06:48;43.40;;;20.80;;
48403;SDS011;34202;52.536;6.042;2022-12-10T14:11:52;50.50;;;22.20;;
48403;SDS011;34202;52.536;6.042;2022-12-10T14:17:17;42.70;;;20.70;;
48403;SDS011;34202;52.536;6.042;2022-12-10T14:22:21;41.40;;;19.70;;
48403;SDS011;34202;52.536;6.042;2022-12-10T14:27:28;50.30;;;22.00;;
48403;SDS011;34202;52.536;6.042;2022-12-10T14:32:30;46.20;;;19.70;;
48403;SDS011;34202;52.536;6.042;2022-12-10T14:37:35;42.50;;;19.90;;
48403;SDS011;34202;52.536;6.042;2022-12-10T14:42:39;45.80;;;19.70;;
48403;SDS011;34202;52.536;6.042;2022-12-10T14:47:39;41.50;;;18.90;;
48403;SDS011;34202;52.536;6.042;2022-12-10T14:52:41;34.90;;;17.80;;
48403;SDS011;34202;52.536;6.042;2022-12-10T14:57:51;36.20;;;16.80;;
48403;SDS011;34202;52.536;6.042;2022-12-10T15:02:54;39.20;;;18.50;;
48403;SDS011;34202;52.536;6.042;2022-12-10T15:08:02;36.10;;;16.70;;
48403;SDS011;34202;52.536;6.042;2022-12-10T15:13:05;44.00;;;20.40;;
48403;SDS011;34202;52.536;6.042;2022-12-10T15:24:04;38.80;;;18.20;;
48403;SDS011;34202;52.536;6.042;2022-12-10T15:28:28;41.80;;;20.20;;
48403;SDS011;34202;52.536;6.042;2022-12-10T15:33:34;43.60;;;20.40;;
48403;SDS011;34202;52.536;6.042;2022-12-10T15:38:38;41.00;;;18.80;;
48403;SDS011;34202;52.536;6.042;2022-12-10T15:43:39;46.40;;;20.90;;
48403;SDS011;34202;52.536;6.042;2022-12-10T15:48:51;38.90;;;17.50;;
48403;SDS011;34202;52.536;6.042;2022-12-10T15:53:52;34.90;;;17.60;;
48403;SDS011;34202;52.536;6.042;2022-12-10T15:58:52;38.60;;;17.20;;
48403;SDS011;34202;52.536;6.042;2022-12-10T16:03:53;44.80;;;17.90;;
48403;SDS011;34202;52.536;6.042;2022-12-10T16:08:53;37.50;;;17.60;;
48403;SDS011;34202;52.536;6.042;2022-12-10T16:13:53;35.00;;;17.30;;
48403;SDS011;34202;52.536;6.042;2022-12-10T16:18:56;40.60;;;19.80;;
48403;SDS011;34202;52.536;6.042;2022-12-10T16:23:57;40.90;;;18.90;;
48403;SDS011;34202;52.536;6.042;2022-12-10T16:28:57;40.10;;;18.60;;
48403;SDS011;34202;52.536;6.042;2022-12-10T16:33:57;40.70;;;19.30;;
48403;SDS011;34202;52.536;6.042;2022-12-10T16:38:58;40.00;;;19.70;;
48403;SDS011;34202;52.536;6.042;2022-12-10T16:43:58;44.00;;;17.00;;
48403;SDS011;34202;52.536;6.042;2022-12-10T16:48:58;32.70;;;15.50;;
48403;SDS011;34202;52.536;6.042;2022-12-10T16:53:59;48.60;;;16.50;;
48403;SDS011;34202;52.536;6.042;2022-12-10T16:58:59;36.70;;;16.50;;
48403;SDS011;34202;52.536;6.042;2022-12-10T17:03:59;36.30;;;17.50;;
48403;SDS011;34202;52.536;6.042;2022-12-10T17:09:00;45.60;;;18.60;;
48403;SDS011;34202;52.536;6.042;2022-12-10T17:14:00;36.20;;;18.00;;
48403;SDS011;34202;52.536;6.042;2022-12-10T17:19:01;37.10;;;17.30;;
48403;SDS011;34202;52.536;6.042;2022-12-10T17:24:02;35.50;;;17.10;;
48403;SDS011;34202;52.536;6.042;2022-12-10T17:29:08;44.70;;;18.30;;
48403;SDS011;34202;52.536;6.042;2022-12-10T17:34:13;38.00;;;16.40;;
48403;SDS011;34202;52.536;6.042;2022-12-10T17:39:14;34.00;;;16.40;;
48403;SDS011;34202;52.536;6.042;2022-12-10T17:44:17;25.40;;;13.20;;
48403;SDS011;34202;52.536;6.042;2022-12-10T17:49:18;31.60;;;15.10;;
48403;SDS011;34202;52.536;6.042;2022-12-10T17:54:19;33.70;;;14.80;;
48403;SDS011;34202;52.536;6.042;2022-12-10T17:59:19;31.30;;;13.10;;
48403;SDS011;34202;52.536;6.042;2022-12-10T18:04:19;32.20;;;15.40;;
48403;SDS011;34202;52.536;6.042;2022-12-10T18:09:20;34.50;;;15.70;;
48403;SDS011;34202;52.536;6.042;2022-12-10T18:14:20;39.20;;;19.10;;
48403;SDS011;34202;52.536;6.042;2022-12-10T18:19:20;33.30;;;16.10;;
48403;SDS011;34202;52.536;6.042;2022-12-10T18:24:21;36.10;;;18.00;;
48403;SDS011;34202;52.536;6.042;2022-12-10T18:29:21;25.90;;;13.00;;
48403;SDS011;34202;52.536;6.042;2022-12-10T18:34:22;41.30;;;17.20;;
48403;SDS011;34202;52.536;6.042;2022-12-10T18:39:24;35.90;;;18.10;;
48403;SDS011;34202;52.536;6.042;2022-12-10T18:44:26;28.30;;;13.90;;
48403;SDS011;34202;52.536;6.042;2022-12-10T18:49:28;36.40;;;15.30;;
48403;SDS011;34202;52.536;6.042;2022-12-10T18:54:31;33.20;;;15.40;;
48403;SDS011;34202;52.536;6.042;2022-12-10T18:59:31;32.90;;;14.50;;
48403;SDS011;34202;52.536;6.042;2022-12-10T19:04:32;39.60;;;18.40;;
48403;SDS011;34202;52.536;6.042;2022-12-10T19:09:32;39.80;;;20.00;;
48403;SDS011;34202;52.536;6.042;2022-12-10T19:14:35;36.50;;;16.50;;
48403;SDS011;34202;52.536;6.042;2022-12-10T19:19:35;25.10;;;13.10;;
48403;SDS011;34202;52.536;6.042;2022-12-10T19:24:35;42.00;;;19.60;;
48403;SDS011;34202;52.536;6.042;2022-12-10T19:29:36;40.70;;;17.90;;
48403;SDS011;34202;52.536;6.042;2022-12-10T19:34:38;32.20;;;16.30;;
48403;SDS011;34202;52.536;6.042;2022-12-10T19:39:39;34.10;;;15.70;;
48403;SDS011;34202;52.536;6.042;2022-12-10T19:44:39;33.70;;;15.00;;
48403;SDS011;34202;52.536;6.042;2022-12-10T19:49:40;34.20;;;16.80;;
48403;SDS011;34202;52.536;6.042;2022-12-10T19:54:40;38.70;;;17.30;;
48403;SDS011;34202;52.536;6.042;2022-12-10T19:59:41;40.70;;;19.10;;
48403;SDS011;34202;52.536;6.042;2022-12-10T20:04:41;40.60;;;17.00;;
48403;SDS011;34202;52.536;6.042;2022-12-10T20:09:41;37.80;;;17.40;;
48403;SDS011;34202;52.536;6.042;2022-12-10T20:14:44;40.90;;;17.70;;
48403;SDS011;34202;52.536;6.042;2022-12-10T20:19:44;37.50;;;17.70;;
48403;SDS011;34202;52.536;6.042;2022-12-10T20:24:45;40.70;;;17.40;;
48403;SDS011;34202;52.536;6.042;2022-12-10T20:29:46;41.30;;;17.00;;
48403;SDS011;34202;52.536;6.042;2022-12-10T20:34:47;47.70;;;18.60;;
48403;SDS011;34202;52.536;6.042;2022-12-10T20:39:47;42.70;;;17.90;;
48403;SDS011;34202;52.536;6.042;2022-12-10T20:44:48;41.60;;;16.60;;
48403;SDS011;34202;52.536;6.042;2022-12-10T20:49:48;36.60;;;16.80;;
48403;SDS011;34202;52.536;6.042;2022-12-10T20:54:48;39.90;;;17.40;;
48403;SDS011;34202;52.536;6.042;2022-12-10T20:59:49;36.50;;;17.40;;
48403;SDS011;34202;52.536;6.042;2022-12-10T21:04:49;48.70;;;20.40;;
48403;SDS011;34202;52.536;6.042;2022-12-10T21:09:50;42.50;;;19.20;;
48403;SDS011;34202;52.536;6.042;2022-12-10T21:14:50;41.70;;;19.50;;
48403;SDS011;34202;52.536;6.042;2022-12-10T21:19:50;36.20;;;15.20;;
48403;SDS011;34202;52.536;6.042;2022-12-10T21:24:51;50.20;;;19.30;;
48403;SDS011;34202;52.536;6.042;2022-12-10T21:29:51;44.20;;;17.30;;
48403;SDS011;34202;52.536;6.042;2022-12-10T21:34:52;36.10;;;14.50;;
48403;SDS011;34202;52.536;6.042;2022-12-10T21:39:52;47.30;;;19.00;;
48403;SDS011;34202;52.536;6.042;2022-12-10T21:44:53;44.00;;;18.70;;
48403;SDS011;34202;52.536;6.042;2022-12-10T21:49:53;37.80;;;16.70;;
48403;SDS011;34202;52.536;6.042;2022-12-10T21:54:53;47.50;;;21.30;;
48403;SDS011;34202;52.536;6.042;2022-12-10T21:59:54;46.00;;;19.00;;
48403;SDS011;34202;52.536;6.042;2022-12-10T22:04:54;45.50;;;21.60;;
48403;SDS011;34202;52.536;6.042;2022-12-10T22:09:57;41.40;;;17.70;;
48403;SDS011;34202;52.536;6.042;2022-12-10T22:14:57;36.90;;;16.40;;
48403;SDS011;34202;52.536;6.042;2022-12-10T22:19:58;46.90;;;21.60;;
48403;SDS011;34202;52.536;6.042;2022-12-10T22:24:58;48.20;;;19.40;;
48403;SDS011;34202;52.536;6.042;2022-12-10T22:29:59;47.80;;;17.50;;
48403;SDS011;34202;52.536;6.042;2022-12-10T22:34:59;44.20;;;19.30;;
48403;SDS011;34202;52.536;6.042;2022-12-10T22:40:00;42.50;;;17.40;;
48403;SDS011;34202;52.536;6.042;2022-12-10T22:45:05;48.50;;;19.40;;
48403;SDS011;34202;52.536;6.042;2022-12-10T22:50:06;47.90;;;20.90;;
48403;SDS011;34202;52.536;6.042;2022-12-10T22:55:08;44.60;;;18.80;;
48403;SDS011;34202;52.536;6.042;2022-12-10T23:00:10;57.00;;;23.20;;
48403;SDS011;34202;52.536;6.042;2022-12-10T23:05:15;43.10;;;18.20;;
48403;SDS011;34202;52.536;6.042;2022-12-10T23:10:16;43.70;;;18.10;;
48403;SDS011;34202;52.536;6.042;2022-12-10T23:15:17;40.50;;;17.20;;
48403;SDS011;34202;52.536;6.042;2022-12-10T23:20:17;45.60;;;17.40;;
48403;SDS011;34202;52.536;6.042;2022-12-10T23:25:18;50.10;;;22.40;;
48403;SDS011;34202;52.536;6.042;2022-12-10T23:30:19;41.40;;;18.50;;
48403;SDS011;34202;52.536;6.042;2022-12-10T23:35:19;52.30;;;20.80;;
48403;SDS011;34202;52.536;6.042;2022-12-10T23:40:19;46.40;;;18.70;;
48403;SDS011;34202;52.536;6.042;2022-12-10T23:45:21;43.30;;;17.50;;
48403;SDS011;34202;52.536;6.042;2022-12-10T23:50:22;54.10;;;22.60;;
48403;SDS011;34202;52.536;6.042;2022-12-10T23:55:22;56.50;;;20.70;;
